createdAt,value
2023-03-17T00:02:06.678Z,28.85
2023-03-17T00:15:44.860Z,20.77
2023-03-17T00:18:16.452Z,24.85
2023-03-17T00:20:46.249Z,20.55
2023-03-17T00:23:20.755Z,20.38
2023-03-17T00:25:49.778Z,19.10
2023-03-17T00:28:24.037Z,26.52
2023-03-17T00:30:58.955Z,20.92
2023-03-17T00:33:29.467Z,36.90
2023-03-17T00:35:58.596Z,34.40
2023-03-17T00:38:26.900Z,29.45
2023-03-17T00:40:55.122Z,23.67
2023-03-17T00:43:23.508Z,30.23
2023-03-17T00:45:51.692Z,22.85
2023-03-17T00:48:22.214Z,26.83
2023-03-17T00:50:51.656Z,29.95
2023-03-17T00:53:21.455Z,26.02
2023-03-17T00:55:49.954Z,27.45
2023-03-17T00:58:34.606Z,21.90
2023-03-17T01:01:03.012Z,31.17
2023-03-17T01:03:31.256Z,28.30
2023-03-17T01:05:59.698Z,19.35
2023-03-17T01:08:29.770Z,31.25
2023-03-17T01:10:58.996Z,24.17
2023-03-17T01:13:27.619Z,28.75
2023-03-17T01:15:56.115Z,33.35
2023-03-17T01:18:25.373Z,15.38
2023-03-17T01:20:53.760Z,25.23
2023-03-17T01:23:21.966Z,33.50
2023-03-17T01:25:50.301Z,27.98
2023-03-17T01:28:20.665Z,32.35
2023-03-17T01:30:49.252Z,34.42
2023-03-17T01:33:18.818Z,20.55
2023-03-17T01:35:46.990Z,30.20
2023-03-17T01:38:15.376Z,29.92
2023-03-17T01:40:50.086Z,21.88
2023-03-17T01:43:20.089Z,17.77
2023-03-17T01:46:24.150Z,24.38
2023-03-17T01:49:14.944Z,23.15
2023-03-17T01:51:55.476Z,23.17
2023-03-17T01:54:36.106Z,20.73
2023-03-17T01:57:14.398Z,33.30
2023-03-17T01:59:50.573Z,32.75
2023-03-17T02:02:24.101Z,17.63
2023-03-17T02:04:54.090Z,25.42
2023-03-17T02:07:25.306Z,20.15
2023-03-17T02:09:54.954Z,38.37
2023-03-17T02:12:24.733Z,40.58
2023-03-17T02:14:53.378Z,64.30
2023-03-17T02:17:23.653Z,45.08
2023-03-17T02:19:52.926Z,41.83
2023-03-17T02:24:59.083Z,24.27
2023-03-17T02:27:33.557Z,26.75
2023-03-17T02:30:02.357Z,27.10
2023-03-17T02:32:30.657Z,48.25
2023-03-17T02:34:58.971Z,36.28
2023-03-17T02:37:27.298Z,35.97
2023-03-17T02:39:55.555Z,28.90
2023-03-17T02:42:23.861Z,41.83
2023-03-17T02:44:52.061Z,38.13
2023-03-17T02:47:20.788Z,14.27
2023-03-17T02:49:49.631Z,30.60
2023-03-17T02:52:17.827Z,20.08
2023-03-17T02:54:46.054Z,19.55
2023-03-17T02:57:14.197Z,18.05
2023-03-17T02:59:42.533Z,29.67
2023-03-17T03:02:11.040Z,24.02
2023-03-17T03:04:39.513Z,24.30
2023-03-17T03:07:07.972Z,33.75
2023-03-17T03:09:36.503Z,28.20
2023-03-17T03:12:05.268Z,29.80
2023-03-17T03:14:33.664Z,22.20
2023-03-17T03:17:01.876Z,30.05
2023-03-17T03:19:30.204Z,30.75
2023-03-17T03:21:58.420Z,24.48
2023-03-17T03:24:26.534Z,26.75
2023-03-17T03:26:54.837Z,22.38
2023-03-17T03:29:23.211Z,37.72
2023-03-17T03:31:51.400Z,39.95
2023-03-17T03:34:19.766Z,23.27
2023-03-17T03:36:48.032Z,23.40
2023-03-17T03:39:16.231Z,25.90
2023-03-17T03:41:44.885Z,20.05
2023-03-17T03:44:13.032Z,40.15
2023-03-17T03:46:41.349Z,29.45
2023-03-17T03:49:09.571Z,21.95
2023-03-17T03:51:37.757Z,20.17
2023-03-17T03:54:06.063Z,28.20
2023-03-17T03:56:34.644Z,31.35
2023-03-17T03:59:02.980Z,29.38
2023-03-17T04:01:31.164Z,25.73
2023-03-17T04:03:59.420Z,22.20
2023-03-17T04:06:27.580Z,23.08
2023-03-17T04:08:58.155Z,24.75
2023-03-17T04:11:26.641Z,36.42
2023-03-17T04:13:55.021Z,46.72
2023-03-17T04:16:23.457Z,42.65
2023-03-17T04:18:51.584Z,33.85
2023-03-17T04:21:19.744Z,23.65
2023-03-17T04:23:48.167Z,23.83
2023-03-17T04:26:16.398Z,29.08
2023-03-17T04:28:44.568Z,37.42
2023-03-17T04:31:13.448Z,30.58
2023-03-17T04:33:41.701Z,23.00
2023-03-17T04:36:22.483Z,27.40
2023-03-17T04:38:50.930Z,30.17
2023-03-17T04:41:19.162Z,19.15
2023-03-17T04:43:47.448Z,23.83
2023-03-17T04:46:15.925Z,28.40
2023-03-17T04:48:44.283Z,29.77
2023-03-17T04:51:12.462Z,23.45
2023-03-17T04:53:40.824Z,26.30
2023-03-17T04:56:09.370Z,22.20
2023-03-17T04:58:38.039Z,26.17
2023-03-17T05:01:06.334Z,15.75
2023-03-17T05:03:35.161Z,27.35
2023-03-17T05:06:04.339Z,20.98
2023-03-17T05:08:33.126Z,32.78
2023-03-17T05:11:01.598Z,31.80
2023-03-17T05:13:30.039Z,27.75
2023-03-17T05:15:58.349Z,26.58
2023-03-17T05:18:27.151Z,29.35
2023-03-17T05:20:55.674Z,33.05
2023-03-17T05:23:23.997Z,18.50
2023-03-17T05:25:52.707Z,20.15
2023-03-17T05:28:21.804Z,25.88
2023-03-17T05:30:50.199Z,17.88
2023-03-17T05:33:18.592Z,21.80
2023-03-17T05:35:47.444Z,19.55
2023-03-17T05:38:15.955Z,24.27
2023-03-17T05:40:44.339Z,35.65
2023-03-17T05:43:14.887Z,47.33
2023-03-17T05:45:43.173Z,34.20
2023-03-17T05:48:14.425Z,26.13
2023-03-17T05:50:42.817Z,16.93
2023-03-17T05:53:11.269Z,10.73
2023-03-17T05:55:39.719Z,17.92
2023-03-17T05:58:08.025Z,13.40
2023-03-17T06:00:36.787Z,8.52
2023-03-17T06:03:05.755Z,14.70
2023-03-17T06:05:34.673Z,13.73
2023-03-17T06:08:03.225Z,14.50
2023-03-17T06:10:31.535Z,12.85
2023-03-17T06:13:01.179Z,15.90
2023-03-17T06:15:31.783Z,37.30
2023-03-17T06:18:00.437Z,26.38
2023-03-17T06:20:28.578Z,31.98
2023-03-17T06:23:04.471Z,19.98
2023-03-17T06:25:34.829Z,26.95
2023-03-17T06:28:04.229Z,27.02
2023-03-17T06:30:38.688Z,15.68
2023-03-17T06:33:07.879Z,23.38
2023-03-17T06:35:36.270Z,26.08
2023-03-17T06:38:04.774Z,38.08
2023-03-17T06:40:33.302Z,22.50
2023-03-17T06:43:01.991Z,35.28
2023-03-17T06:45:30.915Z,27.55
2023-03-17T06:47:59.689Z,19.73
2023-03-17T06:50:27.866Z,18.55
2023-03-17T06:52:56.226Z,20.60
2023-03-17T06:55:24.530Z,18.13
2023-03-17T06:57:52.695Z,15.65
2023-03-17T07:00:21.515Z,17.92
2023-03-17T07:02:49.927Z,19.02
2023-03-17T07:05:18.333Z,17.17
2023-03-17T07:07:46.883Z,26.05
2023-03-17T07:10:15.106Z,27.40
2023-03-17T07:12:43.394Z,27.83
2023-03-17T07:15:12.069Z,23.58
2023-03-17T07:17:40.240Z,23.55
2023-03-17T07:20:08.923Z,14.80
2023-03-17T07:22:37.137Z,23.98
2023-03-17T07:25:05.680Z,26.15
2023-03-17T07:27:33.954Z,21.13
2023-03-17T07:30:02.557Z,20.83
2023-03-17T07:32:31.356Z,27.77
2023-03-17T07:34:59.660Z,22.90
2023-03-17T07:37:27.957Z,22.50
2023-03-17T07:39:56.136Z,22.73
2023-03-17T07:42:24.662Z,20.42
2023-03-17T07:44:52.829Z,23.40
2023-03-17T07:47:21.152Z,25.85
2023-03-17T07:49:49.415Z,27.75
2023-03-17T07:52:17.759Z,17.63
2023-03-17T07:54:46.055Z,23.77
2023-03-17T07:57:14.282Z,21.33
2023-03-17T07:59:42.472Z,17.45
2023-03-17T08:02:16.164Z,25.75
2023-03-17T08:04:45.388Z,21.38
2023-03-17T08:07:13.955Z,35.08
2023-03-17T08:09:42.254Z,26.88
2023-03-17T08:12:10.893Z,29.08
2023-03-17T08:14:39.091Z,18.45
2023-03-17T08:17:10.086Z,22.20
2023-03-17T08:19:38.486Z,19.15
2023-03-17T08:22:06.532Z,29.08
2023-03-17T08:24:34.896Z,19.02
2023-03-17T08:27:02.997Z,20.77
2023-03-17T08:29:31.673Z,15.27
2023-03-17T08:31:59.794Z,14.40
2023-03-17T08:34:28.112Z,15.05
2023-03-17T08:36:56.607Z,23.05
2023-03-17T08:39:24.894Z,28.27
2023-03-17T08:55:41.225Z,14.50
2023-03-17T08:58:09.603Z,18.55
2023-03-17T09:00:37.909Z,15.82
2023-03-17T09:03:06.260Z,18.38
2023-03-17T09:05:37.629Z,19.63
2023-03-17T09:08:06.637Z,10.77
2023-03-17T09:10:35.075Z,17.05
2023-03-17T09:13:03.206Z,15.88
2023-03-17T09:15:34.754Z,29.27
2023-03-17T09:18:03.054Z,20.27
2023-03-17T09:20:31.498Z,15.60
2023-03-17T09:23:07.026Z,11.68
2023-03-17T09:25:39.153Z,10.40
2023-03-17T09:28:07.488Z,11.43
2023-03-17T09:30:36.370Z,13.85
2023-03-17T09:33:04.689Z,22.85
2023-03-17T09:35:32.854Z,13.50
2023-03-17T09:38:01.168Z,16.45
2023-03-17T09:40:36.376Z,25.27
2023-03-17T09:43:33.460Z,18.00
2023-03-17T09:46:27.501Z,19.08
2023-03-17T09:49:17.699Z,14.90
2023-03-17T09:51:46.289Z,15.30
2023-03-17T09:54:34.114Z,11.05
2023-03-17T09:57:13.938Z,16.08
2023-03-17T09:59:50.317Z,12.05
2023-03-17T10:02:27.450Z,14.68
2023-03-17T10:04:56.568Z,32.20
2023-03-17T10:07:38.721Z,19.65
2023-03-17T10:10:16.355Z,16.23
2023-03-17T10:12:56.926Z,30.92
2023-03-17T10:15:35.641Z,19.25
2023-03-17T10:18:15.076Z,20.98
2023-03-17T10:20:57.626Z,12.43
2023-03-17T10:23:31.389Z,13.80
2023-03-17T10:26:16.501Z,23.02
2023-03-17T10:28:44.890Z,26.85
2023-03-17T10:31:19.694Z,17.40
2023-03-17T10:33:52.627Z,14.77
2023-03-17T10:36:38.492Z,22.67
2023-03-17T10:39:08.837Z,22.08
2023-03-17T10:41:41.162Z,19.23
2023-03-17T10:44:21.295Z,16.52
2023-03-17T10:46:57.139Z,17.15
2023-03-17T10:49:25.421Z,18.65
2023-03-17T10:51:54.587Z,18.90
2023-03-17T10:54:25.092Z,21.23
2023-03-17T10:57:03.658Z,17.67
2023-03-17T10:59:37.588Z,17.35
2023-03-17T11:02:19.451Z,16.00
2023-03-17T11:04:48.927Z,15.38
2023-03-17T11:07:20.442Z,22.77
2023-03-17T11:15:02.399Z,18.30
2023-03-17T11:17:57.972Z,22.80
2023-03-17T11:20:44.896Z,24.23
2023-03-17T11:23:43.080Z,19.50
2023-03-17T11:26:28.019Z,22.60
2023-03-17T11:29:16.392Z,24.15
2023-03-17T11:31:55.371Z,19.83
2023-03-17T11:34:35.701Z,37.63
2023-03-17T11:37:24.689Z,27.65
2023-03-17T11:40:33.246Z,21.80
2023-03-17T11:43:23.097Z,30.20
2023-03-17T11:46:20.501Z,48.53
2023-03-17T11:48:49.714Z,17.85
2023-03-17T11:51:36.454Z,30.50
2023-03-17T11:54:10.492Z,18.55
2023-03-17T11:56:56.236Z,19.77
2023-03-17T11:59:38.673Z,31.42
2023-03-17T12:02:32.637Z,33.60
2023-03-17T12:05:12.921Z,43.25
2023-03-17T12:08:08.029Z,19.98
2023-03-17T12:10:58.103Z,32.47
2023-03-17T12:13:30.138Z,22.63
2023-03-17T12:16:29.907Z,25.30
2023-03-17T12:19:04.026Z,27.25
2023-03-17T12:21:45.892Z,30.75
2023-03-17T12:24:16.514Z,23.95
2023-03-17T12:27:00.304Z,30.65
2023-03-17T12:29:45.271Z,33.47
2023-03-17T12:32:23.079Z,26.55
2023-03-17T12:34:57.377Z,22.55
2023-03-17T12:37:28.830Z,25.48
2023-03-17T12:40:07.737Z,20.33
2023-03-17T12:42:42.474Z,38.05
2023-03-17T12:45:15.874Z,29.60
2023-03-17T12:48:13.093Z,24.98
2023-03-17T12:50:50.472Z,34.00
2023-03-17T12:53:46.505Z,22.77
2023-03-17T12:56:45.405Z,32.35
2023-03-17T12:59:22.552Z,30.08
2023-03-17T13:02:14.820Z,27.83
2023-03-17T13:04:51.454Z,34.65
2023-03-17T13:07:54.228Z,29.70
2023-03-17T13:10:47.311Z,30.08
2023-03-17T13:13:54.098Z,25.88
2023-03-17T13:16:32.273Z,41.33
2023-03-17T13:19:22.156Z,29.42
2023-03-17T13:22:00.600Z,22.40
2023-03-17T13:24:44.034Z,42.67
2023-03-17T13:27:31.991Z,30.13
2023-03-17T13:30:19.675Z,34.35
2023-03-17T13:33:11.671Z,26.85
2023-03-17T13:35:46.098Z,33.67
2023-03-17T13:38:39.376Z,28.48
2023-03-17T13:41:38.292Z,31.45
2023-03-17T13:44:34.207Z,32.35
2023-03-17T13:47:24.015Z,26.02
2023-03-17T13:49:54.361Z,32.58
2023-03-17T13:52:42.336Z,17.17
2023-03-17T13:55:22.330Z,28.10
2023-03-17T13:58:18.503Z,34.85
2023-03-17T14:00:49.471Z,26.48
2023-03-17T14:03:34.652Z,26.00
2023-03-17T14:06:06.969Z,25.30
2023-03-17T14:08:38.512Z,22.02
2023-03-17T14:11:25.420Z,20.98
2023-03-17T14:14:08.736Z,31.05
2023-03-17T14:16:53.754Z,30.92
2023-03-17T14:19:27.679Z,25.48
2023-03-17T14:22:02.924Z,31.35
2023-03-17T14:24:33.519Z,28.35
2023-03-17T14:27:09.619Z,28.33
2023-03-17T14:29:38.549Z,30.23
2023-03-17T14:32:13.587Z,25.00
2023-03-17T14:34:54.162Z,24.67
2023-03-17T14:37:22.855Z,32.03
2023-03-17T14:39:54.994Z,33.90
2023-03-17T14:42:32.213Z,26.05
2023-03-17T14:45:07.103Z,24.50
2023-03-17T14:47:41.692Z,37.03
2023-03-17T14:50:26.782Z,32.85
2023-03-17T14:52:55.584Z,27.70
2023-03-17T14:55:29.445Z,32.50
2023-03-17T14:57:57.961Z,25.85
2023-03-17T15:00:44.448Z,32.30
2023-03-17T15:03:22.174Z,30.30
2023-03-17T15:05:51.303Z,24.48
2023-03-17T15:08:36.236Z,19.10
2023-03-17T15:11:06.561Z,19.20
2023-03-17T15:13:38.308Z,24.15
2023-03-17T15:19:17.498Z,26.08
2023-03-17T15:21:45.761Z,30.77
2023-03-17T15:24:34.833Z,36.47
2023-03-17T15:27:05.803Z,28.08
2023-03-17T15:29:34.292Z,36.10
2023-03-17T15:32:23.766Z,32.28
2023-03-17T15:34:54.995Z,24.13
2023-03-17T15:37:26.428Z,30.17
2023-03-17T15:39:56.054Z,31.80
2023-03-17T15:42:33.392Z,22.60
2023-03-17T15:45:02.169Z,31.25
2023-03-17T15:47:33.350Z,32.03
2023-03-17T15:50:13.672Z,23.83
2023-03-17T15:52:41.883Z,34.95
2023-03-17T15:55:27.842Z,25.05
2023-03-17T15:57:56.762Z,27.38
2023-03-17T16:00:27.221Z,29.75
2023-03-17T16:02:58.451Z,28.35
2023-03-17T16:05:33.047Z,32.25
2023-03-17T16:08:01.905Z,27.92
2023-03-17T16:10:32.773Z,33.42
2023-03-17T16:13:01.336Z,25.77
2023-03-17T16:15:32.933Z,35.33
2023-03-17T16:18:03.926Z,35.72
2023-03-17T16:20:46.934Z,28.63
2023-03-17T16:23:20.600Z,21.25
2023-03-17T16:25:49.597Z,37.60
2023-03-17T16:28:23.386Z,49.72
2023-03-17T16:30:54.642Z,32.35
2023-03-17T16:33:38.987Z,26.90
2023-03-17T16:36:07.708Z,33.67
2023-03-17T16:38:35.960Z,49.22
2023-03-17T16:41:27.356Z,21.80
2023-03-17T16:44:01.619Z,34.10
2023-03-17T16:46:35.150Z,30.92
2023-03-17T16:49:04.426Z,46.53
2023-03-17T16:51:32.647Z,34.85
2023-03-17T16:54:00.739Z,38.25
2023-03-17T16:56:29.257Z,26.88
2023-03-17T16:58:57.416Z,33.03
2023-03-17T17:01:28.086Z,34.38
2023-03-17T17:03:56.763Z,37.95
2023-03-17T17:06:25.719Z,32.90
2023-03-17T17:08:53.959Z,41.70
2023-03-17T17:11:22.452Z,44.95
2023-03-17T17:13:50.728Z,35.45
2023-03-17T17:16:30.906Z,41.28
2023-03-17T17:19:00.185Z,48.40
2023-03-17T17:21:29.041Z,36.08
2023-03-17T17:23:57.292Z,37.30
2023-03-17T17:26:25.607Z,41.55
2023-03-17T17:28:53.875Z,41.35
2023-03-17T17:31:22.185Z,32.45
2023-03-17T17:33:50.441Z,33.92
2023-03-17T17:36:19.343Z,42.78
2023-03-17T17:38:47.565Z,43.75
2023-03-17T17:41:15.896Z,28.55
2023-03-17T17:43:44.260Z,54.28
2023-03-17T17:46:16.172Z,40.42
2023-03-17T17:51:12.421Z,38.75
2023-03-17T17:53:40.778Z,38.95
2023-03-17T17:56:12.580Z,42.25
2023-03-17T17:58:40.725Z,50.08
2023-03-17T18:01:09.282Z,32.13
2023-03-17T18:03:37.484Z,46.55
2023-03-17T18:06:05.790Z,53.90
2023-03-17T18:08:34.573Z,43.58
2023-03-17T18:11:02.766Z,39.38
2023-03-17T18:13:31.053Z,32.22
2023-03-17T18:15:59.219Z,37.60
2023-03-17T18:18:27.446Z,39.17
2023-03-17T18:20:55.651Z,40.67
2023-03-17T18:23:23.820Z,48.28
2023-03-17T18:25:52.093Z,35.78
2023-03-17T18:28:20.329Z,39.03
2023-03-17T18:30:48.708Z,33.10
2023-03-17T18:33:20.080Z,43.63
2023-03-17T18:35:51.248Z,59.25
2023-03-17T18:38:19.730Z,52.33
2023-03-17T18:40:47.980Z,43.97
2023-03-17T18:43:16.368Z,47.60
2023-03-17T18:45:45.371Z,52.00
2023-03-17T18:48:13.673Z,40.35
2023-03-17T18:50:41.883Z,48.35
2023-03-17T18:53:10.191Z,53.28
2023-03-17T18:55:38.820Z,60.05
2023-03-17T18:58:07.124Z,36.92
2023-03-17T19:00:35.442Z,61.17
2023-03-17T19:03:03.995Z,48.70
2023-03-17T19:05:35.356Z,38.25
2023-03-17T19:08:03.680Z,49.67
2023-03-17T19:10:32.102Z,51.47
2023-03-17T19:13:00.432Z,45.40
2023-03-17T19:15:28.752Z,50.95
2023-03-17T19:30:59.591Z,43.92
2023-03-17T19:33:27.931Z,45.35
2023-03-17T19:35:58.477Z,38.20
2023-03-17T19:38:27.691Z,58.53
2023-03-17T19:40:55.986Z,53.97
2023-03-17T19:43:39.405Z,43.45
2023-03-17T19:46:08.621Z,37.72
2023-03-17T19:48:36.991Z,49.47
2023-03-17T19:51:06.008Z,49.40
2023-03-17T19:53:35.444Z,43.72
2023-03-17T19:56:03.946Z,50.58
2023-03-17T19:58:32.342Z,40.95
2023-03-17T20:01:00.765Z,53.35
2023-03-17T20:03:29.108Z,54.97
2023-03-17T20:05:57.451Z,40.97
2023-03-17T20:08:25.621Z,44.22
2023-03-17T20:10:54.754Z,50.30
2023-03-17T20:13:23.425Z,40.30
2023-03-17T20:15:51.939Z,50.53
2023-03-17T20:18:20.842Z,54.17
2023-03-17T20:20:54.259Z,42.15
2023-03-17T20:23:22.766Z,51.05
2023-03-17T20:25:51.635Z,49.47
2023-03-17T20:28:22.866Z,38.95
2023-03-17T20:30:51.762Z,48.60
2023-03-17T20:33:20.081Z,50.45
2023-03-17T20:35:48.427Z,41.08
2023-03-17T20:38:16.750Z,45.50
2023-03-17T20:40:45.035Z,66.93
2023-03-17T20:55:56.571Z,40.77
2023-03-17T20:58:25.285Z,43.22
2023-03-17T21:00:53.632Z,38.78
2023-03-17T21:03:22.047Z,35.08
2023-03-17T21:05:50.430Z,35.92
2023-03-17T21:08:18.844Z,45.45
2023-03-17T21:10:47.107Z,32.53
2023-03-17T21:13:15.287Z,41.65
2023-03-17T21:15:43.700Z,46.60
2023-03-17T21:18:14.474Z,44.05
2023-03-17T21:20:43.200Z,41.42
2023-03-17T21:23:12.387Z,45.45
2023-03-17T21:25:40.853Z,47.92
2023-03-17T21:28:09.675Z,54.40
2023-03-17T21:30:38.321Z,38.58
2023-03-17T21:33:06.648Z,40.80
2023-03-17T21:35:34.955Z,62.22
2023-03-17T21:38:03.334Z,63.55
2023-03-17T21:40:31.529Z,67.90
2023-03-17T21:43:00.507Z,48.05
2023-03-17T21:45:29.774Z,63.30
2023-03-17T21:47:57.921Z,53.15
2023-03-17T21:50:26.108Z,62.00
2023-03-17T21:52:54.647Z,58.97
2023-03-17T21:55:22.957Z,61.03
2023-03-17T21:57:51.292Z,47.53
2023-03-17T22:00:20.099Z,46.67
2023-03-17T22:02:48.444Z,45.90
2023-03-17T22:05:21.065Z,44.45
2023-03-17T22:07:49.298Z,49.45
2023-03-17T22:10:17.865Z,50.40
2023-03-17T22:12:46.092Z,42.78
2023-03-17T22:15:14.260Z,36.92
2023-03-17T22:17:42.562Z,37.88
2023-03-17T22:20:11.381Z,41.25
2023-03-17T22:22:39.543Z,50.42
2023-03-17T22:25:08.402Z,50.42
2023-03-17T22:27:36.558Z,44.40
2023-03-17T22:30:05.773Z,43.70
2023-03-17T22:32:33.943Z,50.90
2023-03-17T22:35:02.243Z,63.78
2023-03-17T22:37:30.666Z,54.88
2023-03-17T22:39:58.926Z,45.42
2023-03-17T22:42:27.222Z,50.75
2023-03-17T22:44:55.663Z,37.08
2023-03-17T22:47:23.981Z,46.03
2023-03-17T22:49:52.369Z,52.05
2023-03-17T22:52:23.153Z,53.08
2023-03-17T22:54:51.542Z,45.17
2023-03-17T22:57:21.901Z,51.28
2023-03-17T22:59:50.112Z,63.80
2023-03-17T23:02:18.676Z,43.00
2023-03-17T23:04:47.125Z,65.88
2023-03-17T23:07:15.393Z,45.10
2023-03-17T23:09:44.611Z,52.63
2023-03-17T23:12:13.336Z,80.85
2023-03-17T23:14:41.606Z,67.05
2023-03-17T23:17:09.978Z,91.35
2023-03-17T23:19:38.176Z,82.03
2023-03-17T23:22:06.355Z,77.65
2023-03-17T23:24:34.696Z,78.43
2023-03-17T23:27:03.003Z,65.28
2023-03-17T23:29:31.104Z,74.82
2023-03-17T23:31:59.582Z,64.72
2023-03-17T23:34:27.995Z,64.68
2023-03-17T23:36:56.480Z,79.20
2023-03-17T23:39:24.742Z,81.55
2023-03-17T23:41:53.122Z,66.32
2023-03-17T23:44:21.463Z,41.75
2023-03-17T23:46:49.678Z,57.35
2023-03-17T23:49:18.393Z,53.17
2023-03-17T23:51:46.619Z,45.15
2023-03-17T23:54:14.804Z,62.90
2023-03-17T23:56:43.239Z,75.78
2023-03-17T23:59:11.478Z,53.58
